createdAt,value
2019-05-29T00:00:39.762Z,100.00
2019-05-29T00:03:10.337Z,100.00
2019-05-29T00:05:39.854Z,100.00
2019-05-29T00:08:10.406Z,100.00
2019-05-29T00:10:39.826Z,100.00
2019-05-29T00:13:10.260Z,100.00
2019-05-29T00:15:39.555Z,100.00
2019-05-29T00:18:10.284Z,100.00
2019-05-29T00:20:39.739Z,100.00
2019-05-29T00:23:10.468Z,100.00
2019-05-29T00:25:40.361Z,100.00
2019-05-29T00:28:10.591Z,100.00
2019-05-29T00:30:40.529Z,100.00
2019-05-29T00:33:10.148Z,100.00
2019-05-29T00:35:39.590Z,100.00
2019-05-29T00:38:08.932Z,100.00
2019-05-29T00:40:38.725Z,100.00
2019-05-29T00:43:09.155Z,100.00
2019-05-29T00:45:38.453Z,100.00
2019-05-29T00:48:07.818Z,100.00
2019-05-29T00:50:37.199Z,100.00
2019-05-29T00:53:06.596Z,100.00
2019-05-29T00:55:35.925Z,100.00
2019-05-29T00:58:05.326Z,100.00
2019-05-29T01:00:34.808Z,100.00
2019-05-29T01:03:04.277Z,100.00
2019-05-29T01:05:33.614Z,100.00
2019-05-29T01:08:02.980Z,100.00
2019-05-29T01:10:32.688Z,100.00
2019-05-29T01:13:02.010Z,100.00
2019-05-29T01:15:31.759Z,100.00
2019-05-29T01:18:01.161Z,100.00
2019-05-29T01:20:45.775Z,100.00
2019-05-29T01:23:16.225Z,100.00
2019-05-29T01:25:45.535Z,100.00
2019-05-29T01:28:15.182Z,100.00
2019-05-29T01:30:44.509Z,100.00
2019-05-29T01:33:19.420Z,100.00
2019-05-29T01:35:44.934Z,100.00
2019-05-29T01:38:15.185Z,100.00
2019-05-29T01:40:44.778Z,100.00
2019-05-29T01:43:15.317Z,100.00
2019-05-29T01:45:44.768Z,100.00
2019-05-29T01:48:15.393Z,100.00
2019-05-29T01:50:45.012Z,100.00
2019-05-29T01:53:15.505Z,100.00
2019-05-29T01:55:44.883Z,100.00
2019-05-29T01:58:15.548Z,100.00
2019-05-29T02:00:44.930Z,100.00
2019-05-29T02:03:15.704Z,100.00
2019-05-29T02:05:45.094Z,100.00
2019-05-29T02:08:15.884Z,100.00
2019-05-29T02:10:45.237Z,100.00
2019-05-29T02:13:15.207Z,100.00
2019-05-29T02:15:44.538Z,100.00
2019-05-29T02:18:13.932Z,100.00
2019-05-29T02:20:43.224Z,100.00
2019-05-29T02:23:12.662Z,100.00
2019-05-29T02:25:42.828Z,100.00
2019-05-29T02:28:18.521Z,100.00
2019-05-29T02:30:48.047Z,100.00
2019-05-29T02:33:17.620Z,100.00
2019-05-29T02:35:46.947Z,100.00
2019-05-29T02:38:16.260Z,100.00
2019-05-29T02:40:45.571Z,100.00
2019-05-29T02:43:14.879Z,100.00
2019-05-29T02:45:54.170Z,100.00
2019-05-29T02:48:15.163Z,100.00
2019-05-29T02:50:44.885Z,100.00
2019-05-29T02:53:14.191Z,100.00
2019-05-29T02:55:43.740Z,100.00
2019-05-29T02:58:13.419Z,100.00
2019-05-29T03:00:56.897Z,100.00
2019-05-29T03:03:29.232Z,100.00
2019-05-29T03:05:57.541Z,100.00
2019-05-29T03:08:29.120Z,100.00
2019-05-29T03:10:57.845Z,100.00
2019-05-29T03:13:28.318Z,100.00
2019-05-29T03:16:10.398Z,100.00
2019-05-29T03:18:30.230Z,100.00
2019-05-29T03:21:00.113Z,100.00
2019-05-29T03:23:31.068Z,100.00
2019-05-29T03:26:00.911Z,100.00
2019-05-29T03:28:32.119Z,100.00
2019-05-29T03:31:01.227Z,100.00
2019-05-29T03:33:36.113Z,100.00
2019-05-29T03:36:01.585Z,100.00
2019-05-29T03:38:32.492Z,100.00
2019-05-29T03:41:02.038Z,100.00
2019-05-29T03:43:32.927Z,100.00
2019-05-29T03:46:02.383Z,100.00
2019-05-29T03:48:32.419Z,100.00
2019-05-29T03:51:02.752Z,100.00
2019-05-29T03:53:33.907Z,100.00
2019-05-29T03:56:03.534Z,100.00
2019-05-29T03:58:35.300Z,100.00
2019-05-29T04:01:05.385Z,100.00
2019-05-29T04:03:36.078Z,100.00
2019-05-29T04:06:06.667Z,100.00
2019-05-29T04:08:38.243Z,100.00
2019-05-29T04:11:07.527Z,100.00
2019-05-29T04:13:38.782Z,100.00
2019-05-29T04:16:10.072Z,100.00
2019-05-29T04:18:40.779Z,100.00
2019-05-29T04:21:12.133Z,100.00
2019-05-29T04:23:42.915Z,100.00
2019-05-29T04:26:16.626Z,100.00
2019-05-29T04:28:46.223Z,100.00
2019-05-29T04:31:38.525Z,100.00
2019-05-29T04:34:07.864Z,100.00
2019-05-29T04:36:38.857Z,100.00
2019-05-29T04:39:08.799Z,100.00
2019-05-29T04:41:39.258Z,100.00
2019-05-29T04:44:08.812Z,100.00
2019-05-29T04:46:38.618Z,100.00
2019-05-29T04:49:09.175Z,100.00
2019-05-29T04:51:39.920Z,100.00
2019-05-29T04:54:09.323Z,100.00
2019-05-29T04:56:39.164Z,100.00
2019-05-29T04:59:08.821Z,100.00
2019-05-29T05:01:39.211Z,100.00
2019-05-29T05:04:09.130Z,100.00
2019-05-29T05:06:39.511Z,100.00
2019-05-29T05:09:08.948Z,100.00
2019-05-29T05:11:38.244Z,100.00
2019-05-29T05:14:07.646Z,100.00
2019-05-29T05:16:37.892Z,100.00
2019-05-29T05:19:07.405Z,100.00
2019-05-29T05:21:38.075Z,100.00
2019-05-29T05:24:07.441Z,100.00
2019-05-29T05:26:38.295Z,100.00
2019-05-29T05:29:07.700Z,100.00
2019-05-29T05:31:37.049Z,100.00
2019-05-29T05:34:06.384Z,100.00
2019-05-29T05:36:36.789Z,100.00
2019-05-29T05:39:07.530Z,100.00
2019-05-29T05:41:36.915Z,100.00
2019-05-29T05:44:06.596Z,100.00
2019-05-29T05:46:37.064Z,100.00
2019-05-29T05:49:06.440Z,100.00
2019-05-29T05:51:39.646Z,100.00
2019-05-29T05:54:06.711Z,100.00
2019-05-29T05:56:35.971Z,100.00
2019-05-29T05:59:05.386Z,100.00
2019-05-29T06:01:35.870Z,100.00
2019-05-29T06:04:05.463Z,100.00
2019-05-29T06:06:35.771Z,100.00
2019-05-29T06:09:07.741Z,100.00
2019-05-29T06:11:38.230Z,100.00
2019-05-29T06:14:08.034Z,100.00
2019-05-29T06:16:38.645Z,100.00
2019-05-29T06:19:08.070Z,100.00
2019-05-29T06:21:37.339Z,100.00
2019-05-29T06:24:06.658Z,100.00
2019-05-29T06:26:36.900Z,100.00
2019-05-29T06:29:06.176Z,100.00
2019-05-29T06:31:35.728Z,100.00
2019-05-29T06:34:04.990Z,100.00
2019-05-29T06:36:35.481Z,100.00
2019-05-29T06:39:06.763Z,100.00
2019-05-29T06:41:36.000Z,100.00
2019-05-29T06:44:05.257Z,100.00
2019-05-29T06:46:36.060Z,100.00
2019-05-29T06:49:05.625Z,100.00
2019-05-29T06:51:35.202Z,100.00
2019-05-29T06:54:04.479Z,100.00
2019-05-29T06:56:34.047Z,100.00
2019-05-29T06:59:03.349Z,100.00
2019-05-29T07:01:32.651Z,100.00
2019-05-29T07:04:12.010Z,100.00
2019-05-29T07:06:32.852Z,100.00
2019-05-29T07:09:02.094Z,100.00
2019-05-29T07:11:31.596Z,100.00
2019-05-29T07:14:00.886Z,100.00
2019-05-29T07:16:43.990Z,100.00
2019-05-29T07:19:24.706Z,100.00
2019-05-29T07:21:33.034Z,100.00
2019-05-29T07:24:02.276Z,100.00
2019-05-29T07:26:31.490Z,100.00
2019-05-29T07:29:08.034Z,100.00
2019-05-29T07:31:31.839Z,100.00
2019-05-29T07:34:01.444Z,100.00
2019-05-29T07:36:30.731Z,100.00
2019-05-29T07:39:03.636Z,100.00
2019-05-29T07:41:31.247Z,100.00
2019-05-29T07:44:00.618Z,100.00
2019-05-29T07:46:29.856Z,100.00
2019-05-29T07:48:59.185Z,100.00
2019-05-29T07:51:28.416Z,100.00
2019-05-29T07:53:57.638Z,100.00
2019-05-29T07:56:26.886Z,100.00
2019-05-29T07:59:02.577Z,100.00
2019-05-29T08:01:30.425Z,100.00
2019-05-29T08:03:58.421Z,100.00
2019-05-29T08:06:27.682Z,100.00
2019-05-29T08:08:56.941Z,100.00
2019-05-29T08:11:26.216Z,100.00
2019-05-29T08:13:55.589Z,100.00
2019-05-29T08:16:24.838Z,100.00
2019-05-29T08:18:54.060Z,100.00
2019-05-29T08:21:23.393Z,100.00
2019-05-29T08:23:54.902Z,100.00
2019-05-29T08:26:24.206Z,100.00
2019-05-29T08:28:53.445Z,100.00
2019-05-29T08:31:22.716Z,100.00
2019-05-29T08:33:52.229Z,100.00
2019-05-29T08:36:21.513Z,100.00
2019-05-29T08:38:51.808Z,100.00
2019-05-29T08:41:21.210Z,100.00
2019-05-29T08:43:50.873Z,100.00
2019-05-29T08:46:21.304Z,100.00
2019-05-29T08:48:50.554Z,100.00
2019-05-29T08:51:19.837Z,100.00
2019-05-29T08:53:52.083Z,100.00
2019-05-29T08:56:20.268Z,100.00
2019-05-29T08:58:50.620Z,100.00
2019-05-29T09:01:19.947Z,100.00
2019-05-29T09:03:49.202Z,100.00
2019-05-29T09:06:18.505Z,100.00
2019-05-29T09:08:48.525Z,100.00
2019-05-29T09:11:19.933Z,100.00
2019-05-29T09:13:49.244Z,100.00
2019-05-29T09:16:18.487Z,100.00
2019-05-29T09:18:47.753Z,100.00
2019-05-29T09:21:19.109Z,100.00
2019-05-29T09:23:48.456Z,100.00
2019-05-29T09:26:22.411Z,100.00
2019-05-29T09:28:48.747Z,100.00
2019-05-29T09:31:19.925Z,100.00
2019-05-29T09:33:49.559Z,100.00
2019-05-29T09:36:19.244Z,100.00
2019-05-29T09:38:50.158Z,100.00
2019-05-29T09:41:19.484Z,100.00
2019-05-29T09:43:59.288Z,100.00
2019-05-29T09:46:20.139Z,100.00
2019-05-29T09:48:50.440Z,100.00
2019-05-29T09:53:44.883Z,100.00
2019-05-29T09:53:53.580Z,100.00
2019-05-29T09:56:22.724Z,100.00
2019-05-29T09:58:53.678Z,100.00
2019-05-29T10:01:24.931Z,100.00
2019-05-29T10:03:57.136Z,100.00
2019-05-29T10:06:26.013Z,100.00
2019-05-29T10:08:56.281Z,100.00
2019-05-29T10:11:26.220Z,100.00
2019-05-29T10:13:56.778Z,100.00
2019-05-29T10:16:26.530Z,100.00
2019-05-29T10:18:57.240Z,100.00
2019-05-29T10:21:38.990Z,100.00
2019-05-29T10:23:59.603Z,100.00
2019-05-29T10:26:28.876Z,100.00
2019-05-29T10:29:07.838Z,100.00
2019-05-29T10:31:29.088Z,100.00
2019-05-29T10:33:58.773Z,100.00
2019-05-29T10:36:28.020Z,100.00
2019-05-29T10:38:57.451Z,100.00
2019-05-29T10:41:26.679Z,100.00
2019-05-29T10:43:56.181Z,100.00
2019-05-29T10:46:26.497Z,100.00
2019-05-29T10:48:56.627Z,100.00
2019-05-29T10:51:26.019Z,100.00
2019-05-29T10:53:58.039Z,100.00
2019-05-29T10:56:26.241Z,100.00
2019-05-29T10:58:59.569Z,100.00
2019-05-29T11:01:26.737Z,100.00
2019-05-29T11:03:56.046Z,100.00
2019-05-29T11:06:25.321Z,100.00
2019-05-29T11:08:54.520Z,100.00
2019-05-29T11:11:23.771Z,100.00
2019-05-29T11:13:53.016Z,100.00
2019-05-29T11:16:22.300Z,100.00
2019-05-29T11:18:51.584Z,100.00
2019-05-29T11:21:20.839Z,100.00
2019-05-29T11:23:50.336Z,100.00
2019-05-29T11:26:19.590Z,93.15
2019-05-29T11:28:50.320Z,95.31
2019-05-29T11:31:19.733Z,100.00
2019-05-29T11:33:48.953Z,97.36
2019-05-29T11:36:18.234Z,100.00
2019-05-29T11:38:47.446Z,100.00
2019-05-29T11:41:25.991Z,99.31
2019-05-29T11:43:47.739Z,100.00
2019-05-29T11:46:17.359Z,93.72
2019-05-29T11:48:46.623Z,77.55
2019-05-29T11:51:15.865Z,75.98
2019-05-29T11:53:45.086Z,74.66
2019-05-29T11:56:14.350Z,75.68
2019-05-29T11:58:43.580Z,78.34
2019-05-29T12:01:12.821Z,69.80
2019-05-29T12:04:05.894Z,72.42
2019-05-29T12:06:13.029Z,67.05
2019-05-29T12:08:42.322Z,67.19
2019-05-29T12:11:11.570Z,70.29
2019-05-29T12:13:40.813Z,69.66
2019-05-29T12:16:11.495Z,68.17
2019-05-29T12:18:40.723Z,72.56
2019-05-29T12:21:10.168Z,65.20
2019-05-29T12:23:39.382Z,59.52
2019-05-29T12:26:21.859Z,59.45
2019-05-29T12:28:39.716Z,57.78
2019-05-29T12:31:09.095Z,59.99
2019-05-29T12:33:38.329Z,62.63
2019-05-29T12:36:08.022Z,57.34
2019-05-29T12:38:37.660Z,51.38
2019-05-29T12:41:07.004Z,55.90
2019-05-29T12:43:36.205Z,53.38
2019-05-29T12:46:05.553Z,53.38
2019-05-29T12:48:34.806Z,53.93
2019-05-29T12:51:04.293Z,52.27
2019-05-29T12:53:33.780Z,48.13
2019-05-29T12:56:04.454Z,44.03
2019-05-29T12:58:33.847Z,44.03
2019-05-29T13:01:04.985Z,43.59
2019-05-29T13:03:34.953Z,49.38
2019-05-29T13:06:04.497Z,48.45
2019-05-29T13:08:33.744Z,45.45
2019-05-29T13:11:02.957Z,39.41
2019-05-29T13:13:32.207Z,40.79
2019-05-29T13:16:03.068Z,38.64
2019-05-29T13:18:32.780Z,33.78
2019-05-29T13:21:03.128Z,36.10
2019-05-29T13:23:44.869Z,35.09
2019-05-29T13:26:03.739Z,36.78
2019-05-29T13:28:33.148Z,34.22
2019-05-29T13:31:02.361Z,32.75
2019-05-29T13:33:31.592Z,32.85
2019-05-29T13:36:02.122Z,33.26
2019-05-29T13:38:31.495Z,33.57
2019-05-29T13:41:00.678Z,33.80
2019-05-29T13:43:29.939Z,33.25
2019-05-29T13:46:00.392Z,32.14
2019-05-29T13:48:29.718Z,34.91
2019-05-29T13:50:59.854Z,34.52
2019-05-29T13:53:29.882Z,33.91
2019-05-29T13:55:59.966Z,31.10
2019-05-29T13:58:29.436Z,31.56
2019-05-29T14:01:00.625Z,31.75
2019-05-29T14:03:29.756Z,33.74
2019-05-29T14:06:00.648Z,34.84
2019-05-29T14:08:29.999Z,34.17
2019-05-29T14:11:00.879Z,33.95
2019-05-29T14:13:30.266Z,33.98
2019-05-29T14:16:00.552Z,34.04
2019-05-29T14:18:30.342Z,30.88
2019-05-29T14:21:00.811Z,31.53
2019-05-29T14:23:30.225Z,33.87
2019-05-29T14:26:00.397Z,36.20
2019-05-29T14:28:29.776Z,35.11
2019-05-29T14:30:58.984Z,36.42
2019-05-29T14:33:28.312Z,36.13
2019-05-29T14:35:57.536Z,33.88
2019-05-29T14:38:26.770Z,32.30
2019-05-29T14:40:56.291Z,32.75
2019-05-29T14:43:25.528Z,34.05
2019-05-29T14:45:54.814Z,32.46
2019-05-29T14:48:24.062Z,31.22
2019-05-29T14:50:53.306Z,31.03
2019-05-29T14:53:22.535Z,30.67
2019-05-29T14:55:51.781Z,31.76
2019-05-29T14:58:20.999Z,30.89
2019-05-29T15:00:50.287Z,33.22
2019-05-29T15:03:19.531Z,32.14
2019-05-29T15:05:48.790Z,33.55
2019-05-29T15:08:18.299Z,32.93
2019-05-29T15:10:49.904Z,33.22
2019-05-29T15:13:19.150Z,33.92
2019-05-29T15:15:48.397Z,35.98
2019-05-29T15:18:19.314Z,34.51
2019-05-29T15:20:48.705Z,34.16
2019-05-29T15:23:17.938Z,35.58
2019-05-29T15:25:47.212Z,34.38
2019-05-29T15:28:17.966Z,35.05
2019-05-29T15:30:47.648Z,36.96
2019-05-29T15:33:16.990Z,36.60
2019-05-29T15:35:46.224Z,38.77
2019-05-29T15:38:16.937Z,36.38
2019-05-29T15:40:46.492Z,37.15
2019-05-29T15:43:17.214Z,36.33
2019-05-29T15:45:46.735Z,36.11
2019-05-29T15:48:17.443Z,35.81
2019-05-29T15:50:47.116Z,36.87
2019-05-29T15:53:17.280Z,35.09
2019-05-29T15:55:46.724Z,33.42
2019-05-29T15:58:16.286Z,35.40
2019-05-29T16:00:47.685Z,34.69
2019-05-29T16:03:17.788Z,36.47
2019-05-29T16:05:47.038Z,34.71
2019-05-29T16:08:16.335Z,34.49
2019-05-29T16:10:45.874Z,35.74
2019-05-29T16:13:15.201Z,36.85
2019-05-29T16:15:44.703Z,36.95
2019-05-29T16:18:23.151Z,37.97
2019-05-29T16:20:44.993Z,37.38
2019-05-29T16:23:30.773Z,35.44
2019-05-29T16:25:45.188Z,38.24
2019-05-29T16:28:15.148Z,39.46
2019-05-29T16:30:44.438Z,39.71
2019-05-29T16:33:14.938Z,40.89
2019-05-29T16:35:44.406Z,39.12
2019-05-29T16:38:14.205Z,39.83
2019-05-29T16:40:44.934Z,42.42
2019-05-29T16:43:14.218Z,42.09
2019-05-29T16:45:43.453Z,42.48
2019-05-29T16:48:12.999Z,40.23
2019-05-29T16:50:42.507Z,40.00
2019-05-29T16:53:12.610Z,37.41
2019-05-29T16:55:53.358Z,39.75
2019-05-29T16:58:13.123Z,38.78
2019-05-29T17:00:42.343Z,39.90
2019-05-29T17:03:11.583Z,39.92
2019-05-29T17:05:46.929Z,40.62
2019-05-29T17:08:16.224Z,38.53
2019-05-29T17:10:45.767Z,40.32
2019-05-29T17:13:16.492Z,40.89
2019-05-29T17:15:45.925Z,38.35
2019-05-29T17:18:16.422Z,36.54
2019-05-29T17:20:46.741Z,38.39
2019-05-29T17:23:18.879Z,39.85
2019-05-29T17:25:48.151Z,41.94
2019-05-29T17:28:22.496Z,44.52
2019-05-29T17:30:49.344Z,47.79
2019-05-29T17:33:19.083Z,54.20
2019-05-29T17:35:48.439Z,50.92
2019-05-29T17:38:25.552Z,53.54
2019-05-29T17:40:55.331Z,54.27
2019-05-29T17:43:28.448Z,57.29
2019-05-29T17:45:55.973Z,62.92
2019-05-29T17:48:26.045Z,56.58
2019-05-29T17:50:55.224Z,54.00
2019-05-29T17:53:24.445Z,50.01
2019-05-29T17:55:53.688Z,53.89
2019-05-29T17:58:24.786Z,58.81
2019-05-29T18:00:53.916Z,57.20
2019-05-29T18:03:24.209Z,53.35
2019-05-29T18:05:55.661Z,48.37
2019-05-29T18:08:25.185Z,48.36
2019-05-29T18:10:54.733Z,46.56
2019-05-29T18:13:25.240Z,47.16
2019-05-29T18:15:54.769Z,45.35
2019-05-29T18:18:23.966Z,46.38
2019-05-29T18:20:55.501Z,51.37
2019-05-29T18:23:28.427Z,54.51
2019-05-29T18:25:58.343Z,56.24
2019-05-29T18:28:28.351Z,58.81
2019-05-29T18:30:58.532Z,60.61
2019-05-29T18:33:28.909Z,58.53
2019-05-29T18:35:58.809Z,58.52
2019-05-29T18:38:28.716Z,60.78
2019-05-29T18:40:58.565Z,59.89
2019-05-29T18:43:30.947Z,59.97
2019-05-29T18:46:00.635Z,61.90
2019-05-29T18:48:32.471Z,64.32
2019-05-29T18:51:02.122Z,70.18
2019-05-29T18:53:33.945Z,76.80
2019-05-29T18:56:03.547Z,79.46
2019-05-29T18:58:32.846Z,85.94
2019-05-29T19:01:04.433Z,85.94
2019-05-29T19:03:33.855Z,86.62
2019-05-29T19:06:07.152Z,90.95
2019-05-29T19:08:36.625Z,100.00
2019-05-29T19:11:09.060Z,100.00
2019-05-29T19:13:38.408Z,100.00
2019-05-29T19:16:08.066Z,100.00
2019-05-29T19:18:37.685Z,100.00
2019-05-29T19:21:07.330Z,100.00
2019-05-29T19:23:36.618Z,100.00
2019-05-29T19:26:05.917Z,100.00
2019-05-29T19:28:35.154Z,100.00
2019-05-29T19:31:04.543Z,100.00
2019-05-29T19:33:33.801Z,100.00
2019-05-29T19:36:03.029Z,100.00
2019-05-29T19:38:32.285Z,100.00
2019-05-29T19:41:01.532Z,100.00
2019-05-29T19:43:30.783Z,100.00
2019-05-29T19:46:00.005Z,100.00
2019-05-29T19:48:30.615Z,100.00
2019-05-29T19:51:00.393Z,100.00
2019-05-29T19:53:29.997Z,100.00
2019-05-29T19:55:59.718Z,100.00
2019-05-29T19:58:29.777Z,100.00
2019-05-29T20:00:59.062Z,100.00
2019-05-29T20:03:28.377Z,100.00
2019-05-29T20:05:57.828Z,100.00
2019-05-29T20:08:28.083Z,100.00
2019-05-29T20:10:58.033Z,100.00
2019-05-29T20:13:27.636Z,100.00
2019-05-29T20:15:56.923Z,100.00
2019-05-29T20:18:26.203Z,100.00
2019-05-29T20:20:55.476Z,100.00
2019-05-29T20:23:24.806Z,100.00
2019-05-29T20:25:54.062Z,100.00
2019-05-29T20:28:23.631Z,100.00
2019-05-29T20:30:52.890Z,100.00
2019-05-29T20:33:22.142Z,100.00
2019-05-29T20:35:51.761Z,100.00
2019-05-29T20:38:21.234Z,100.00
2019-05-29T20:40:50.482Z,100.00
2019-05-29T20:43:19.936Z,100.00
2019-05-29T20:45:49.648Z,100.00
2019-05-29T20:48:18.962Z,100.00
2019-05-29T20:50:54.116Z,100.00
2019-05-29T20:53:23.444Z,100.00
2019-05-29T20:55:54.067Z,100.00
2019-05-29T20:58:24.927Z,100.00
2019-05-29T21:00:54.656Z,100.00
2019-05-29T21:03:24.251Z,100.00
2019-05-29T21:05:53.766Z,100.00
2019-05-29T21:08:23.084Z,100.00
2019-05-29T21:10:52.672Z,100.00
2019-05-29T21:13:22.433Z,100.00
2019-05-29T21:15:51.696Z,100.00
2019-05-29T21:18:20.961Z,100.00
2019-05-29T21:20:50.311Z,100.00
2019-05-29T21:23:19.777Z,100.00
2019-05-29T21:25:49.050Z,100.00
2019-05-29T21:28:18.669Z,100.00
2019-05-29T21:30:48.351Z,100.00
2019-05-29T21:33:17.664Z,100.00
2019-05-29T21:35:46.952Z,100.00
2019-05-29T21:38:16.185Z,100.00
2019-05-29T21:40:46.755Z,100.00
2019-05-29T21:43:16.134Z,100.00
2019-05-29T21:45:45.443Z,100.00
2019-05-29T21:48:14.697Z,100.00
2019-05-29T21:50:43.973Z,100.00
2019-05-29T21:53:13.177Z,100.00
2019-05-29T21:55:43.585Z,100.00
2019-05-29T21:58:12.849Z,100.00
2019-05-29T22:00:48.242Z,100.00
2019-05-29T22:03:17.645Z,100.00
2019-05-29T22:05:46.969Z,100.00
2019-05-29T22:08:17.085Z,100.00
2019-05-29T22:10:46.519Z,100.00
2019-05-29T22:13:15.922Z,100.00
2019-05-29T22:15:45.201Z,100.00
2019-05-29T22:18:14.535Z,100.00
2019-05-29T22:20:44.041Z,100.00
2019-05-29T22:23:13.277Z,100.00
2019-05-29T22:25:42.591Z,100.00
2019-05-29T22:28:11.812Z,100.00
2019-05-29T22:30:41.911Z,100.00
2019-05-29T22:33:11.214Z,100.00
2019-05-29T22:35:40.466Z,100.00
2019-05-29T22:38:09.683Z,100.00
2019-05-29T22:40:38.951Z,100.00
2019-05-29T22:43:08.186Z,100.00
2019-05-29T22:45:37.438Z,100.00
2019-05-29T22:48:06.661Z,100.00
2019-05-29T22:50:35.946Z,100.00
2019-05-29T22:53:05.584Z,100.00
2019-05-29T22:55:34.829Z,100.00
2019-05-29T22:58:04.672Z,100.00
2019-05-29T23:00:34.189Z,100.00
2019-05-29T23:03:03.598Z,100.00
2019-05-29T23:05:33.151Z,100.00
2019-05-29T23:08:02.768Z,100.00
2019-05-29T23:10:32.179Z,100.00
2019-05-29T23:13:04.390Z,100.00
2019-05-29T23:15:32.661Z,100.00
2019-05-29T23:18:02.813Z,100.00
2019-05-29T23:20:32.473Z,100.00
2019-05-29T23:23:02.924Z,100.00
2019-05-29T23:25:32.269Z,100.00
2019-05-29T23:28:01.567Z,100.00
2019-05-29T23:30:31.156Z,100.00
2019-05-29T23:33:01.181Z,100.00
2019-05-29T23:35:30.562Z,100.00
2019-05-29T23:37:59.870Z,100.00
2019-05-29T23:40:29.109Z,100.00
2019-05-29T23:42:59.455Z,100.00
2019-05-29T23:45:28.797Z,100.00
2019-05-29T23:47:58.132Z,100.00
2019-05-29T23:50:27.391Z,100.00
2019-05-29T23:52:57.929Z,100.00
2019-05-29T23:55:27.287Z,100.00
2019-05-29T23:57:57.750Z,100.00
